createdAt,value
2017-10-08T00:01:42.560Z,19.700000000000003
2017-10-08T00:03:42.657Z,19.700000000000003
2017-10-08T00:05:42.761Z,19.700000000000003
2017-10-08T00:07:42.944Z,19.700000000000003
2017-10-08T00:09:43.113Z,19.700000000000003
2017-10-08T00:11:43.192Z,19.700000000000003
2017-10-08T00:13:43.286Z,19.700000000000003
2017-10-08T00:15:43.524Z,19.700000000000003
2017-10-08T00:17:43.814Z,19.700000000000003
2017-10-08T00:19:43.939Z,19.700000000000003
2017-10-08T00:21:43.959Z,19.700000000000003
2017-10-08T00:23:44.079Z,19.700000000000003
2017-10-08T00:25:44.522Z,20.200000000000003
2017-10-08T00:27:44.585Z,19.700000000000003
2017-10-08T00:29:44.648Z,19.700000000000003
2017-10-08T00:31:44.818Z,19.700000000000003
2017-10-08T00:33:44.919Z,19.700000000000003
2017-10-08T00:35:45.025Z,19.700000000000003
2017-10-08T00:37:45.153Z,19.700000000000003
2017-10-08T00:39:45.325Z,19.700000000000003
2017-10-08T00:41:45.388Z,19.700000000000003
2017-10-08T00:43:45.509Z,19.700000000000003
2017-10-08T00:45:45.655Z,19.200000000000003
2017-10-08T00:47:45.779Z,19.200000000000003
2017-10-08T00:49:45.906Z,19.700000000000003
2017-10-08T00:51:46.005Z,20.200000000000003
2017-10-08T00:53:46.107Z,19.700000000000003
2017-10-08T00:55:46.258Z,19.700000000000003
2017-10-08T00:57:46.352Z,19.700000000000003
2017-10-08T00:59:46.518Z,19.200000000000003
2017-10-08T01:01:46.655Z,19.200000000000003
2017-10-08T01:03:46.766Z,19.700000000000003
2017-10-08T01:05:47.002Z,20.200000000000003
2017-10-08T01:07:47.091Z,19.200000000000003
2017-10-08T01:09:47.171Z,19.700000000000003
2017-10-08T01:11:47.288Z,19.700000000000003
2017-10-08T01:13:47.413Z,19.700000000000003
2017-10-08T01:15:47.566Z,19.700000000000003
2017-10-08T01:17:47.667Z,19.700000000000003
2017-10-08T01:19:47.780Z,19.700000000000003
2017-10-08T01:21:47.933Z,19.700000000000003
2017-10-08T01:23:48.037Z,19.700000000000003
2017-10-08T01:25:48.259Z,19.700000000000003
2017-10-08T01:27:48.372Z,19.700000000000003
2017-10-08T01:29:48.513Z,19.700000000000003
2017-10-08T01:31:48.601Z,19.700000000000003
2017-10-08T01:33:48.740Z,19.700000000000003
2017-10-08T01:35:48.879Z,19.700000000000003
2017-10-08T01:37:49.082Z,19.700000000000003
2017-10-08T01:39:49.110Z,19.700000000000003
2017-10-08T01:41:49.230Z,19.700000000000003
2017-10-08T01:43:49.394Z,19.700000000000003
2017-10-08T01:45:49.497Z,19.700000000000003
2017-10-08T01:47:49.643Z,19.700000000000003
2017-10-08T01:49:49.758Z,19.700000000000003
2017-10-08T01:51:49.897Z,19.200000000000003
2017-10-08T01:53:50.017Z,19.700000000000003
2017-10-08T01:55:50.148Z,19.700000000000003
2017-10-08T01:57:50.346Z,19.200000000000003
2017-10-08T01:59:50.407Z,19.200000000000003
2017-10-08T02:01:50.506Z,19.700000000000003
2017-10-08T02:03:50.665Z,19.200000000000003
2017-10-08T02:05:50.800Z,19.700000000000003
2017-10-08T02:07:50.909Z,19.700000000000003
2017-10-08T02:09:51.196Z,19.200000000000003
2017-10-08T02:11:51.436Z,19.200000000000003
2017-10-08T02:13:51.304Z,19.700000000000003
2017-10-08T02:15:51.380Z,19.700000000000003
2017-10-08T02:17:51.529Z,19.700000000000003
2017-10-08T02:19:51.671Z,19.700000000000003
2017-10-08T02:21:51.859Z,19.700000000000003
2017-10-08T02:23:51.889Z,19.700000000000003
2017-10-08T02:25:52.079Z,19.700000000000003
2017-10-08T02:27:52.156Z,19.700000000000003
2017-10-08T02:29:52.557Z,19.700000000000003
2017-10-08T02:31:52.616Z,19.700000000000003
2017-10-08T02:33:52.829Z,19.700000000000003
2017-10-08T02:35:52.976Z,19.700000000000003
2017-10-08T02:37:53.111Z,19.700000000000003
2017-10-08T02:39:53.238Z,19.700000000000003
2017-10-08T02:41:54.248Z,19.700000000000003
2017-10-08T02:43:53.598Z,19.200000000000003
2017-10-08T02:45:53.603Z,19.200000000000003
2017-10-08T02:47:53.782Z,18.6
2017-10-08T02:49:54.229Z,19.700000000000003
2017-10-08T02:51:54.304Z,19.700000000000003
2017-10-08T02:53:54.475Z,19.700000000000003
2017-10-08T02:55:54.853Z,19.700000000000003
2017-10-08T02:57:54.849Z,19.200000000000003
2017-10-08T02:59:55.115Z,19.200000000000003
2017-10-08T03:01:55.181Z,19.200000000000003
2017-10-08T03:03:55.304Z,19.200000000000003
2017-10-08T03:05:55.428Z,19.700000000000003
2017-10-08T03:07:55.543Z,19.200000000000003
2017-10-08T03:09:55.716Z,19.200000000000003
2017-10-08T03:11:56.129Z,19.200000000000003
2017-10-08T03:13:56.262Z,19.200000000000003
2017-10-08T03:15:56.362Z,19.200000000000003
2017-10-08T03:17:56.490Z,19.200000000000003
2017-10-08T03:19:56.648Z,19.700000000000003
2017-10-08T03:21:56.750Z,19.700000000000003
2017-10-08T03:23:56.899Z,19.700000000000003
2017-10-08T03:25:57.031Z,19.700000000000003
2017-10-08T03:27:57.223Z,19.700000000000003
2017-10-08T03:29:57.279Z,19.200000000000003
2017-10-08T03:31:57.381Z,18.6
2017-10-08T03:33:57.544Z,19.200000000000003
2017-10-08T03:35:57.769Z,19.200000000000003
2017-10-08T03:37:57.830Z,19.200000000000003
2017-10-08T03:39:58.010Z,19.200000000000003
2017-10-08T03:41:58.088Z,18.6
2017-10-08T03:43:58.216Z,18.6
2017-10-08T03:45:58.392Z,18.6
2017-10-08T03:47:58.458Z,19.200000000000003
2017-10-08T03:49:58.695Z,19.700000000000003
2017-10-08T03:51:58.807Z,19.200000000000003
2017-10-08T03:53:58.955Z,19.200000000000003
2017-10-08T03:55:59.165Z,19.200000000000003
2017-10-08T03:57:59.310Z,19.200000000000003
2017-10-08T03:59:59.437Z,18.6
2017-10-08T04:01:59.568Z,18.6
2017-10-08T04:03:59.674Z,19.200000000000003
2017-10-08T04:05:59.840Z,19.200000000000003
2017-10-08T04:08:00.103Z,19.700000000000003
2017-10-08T04:10:00.041Z,19.200000000000003
2017-10-08T04:12:00.175Z,19.200000000000003
2017-10-08T04:14:00.353Z,18.6
2017-10-08T04:16:00.425Z,19.200000000000003
2017-10-08T04:18:00.547Z,18.6
2017-10-08T04:20:00.808Z,19.200000000000003
2017-10-08T04:22:00.939Z,19.700000000000003
2017-10-08T04:24:01.082Z,18.6
2017-10-08T04:26:01.215Z,19.200000000000003
2017-10-08T04:28:01.328Z,19.200000000000003
2017-10-08T04:30:01.471Z,19.200000000000003
2017-10-08T04:32:01.761Z,19.200000000000003
2017-10-08T04:34:02.306Z,18.6
2017-10-08T04:36:02.539Z,19.200000000000003
2017-10-08T04:38:02.666Z,18.6
2017-10-08T04:40:07.840Z,19.200000000000003
2017-10-08T04:42:02.944Z,18.6
2017-10-08T04:44:03.086Z,19.200000000000003
2017-10-08T04:46:03.274Z,19.200000000000003
2017-10-08T04:48:03.601Z,18.6
2017-10-08T04:50:03.542Z,18.6
2017-10-08T04:52:03.788Z,19.200000000000003
2017-10-08T04:54:03.872Z,18.6
2017-10-08T04:56:04.015Z,19.700000000000003
2017-10-08T04:58:04.302Z,19.200000000000003
2017-10-08T05:00:04.216Z,19.200000000000003
2017-10-08T05:02:04.374Z,19.700000000000003
2017-10-08T05:04:04.464Z,19.200000000000003
2017-10-08T05:06:04.585Z,18.6
2017-10-08T05:08:04.865Z,19.200000000000003
2017-10-08T05:10:04.826Z,19.200000000000003
2017-10-08T05:12:05.108Z,19.200000000000003
2017-10-08T05:14:05.110Z,19.700000000000003
2017-10-08T05:16:05.559Z,19.200000000000003
2017-10-08T05:18:05.329Z,19.200000000000003
2017-10-08T05:20:05.430Z,18.6
2017-10-08T05:22:05.609Z,19.200000000000003
2017-10-08T05:24:05.737Z,19.700000000000003
2017-10-08T05:26:06.003Z,19.700000000000003
2017-10-08T05:28:06.118Z,19.700000000000003
2017-10-08T05:30:06.267Z,19.700000000000003
2017-10-08T05:32:06.363Z,19.200000000000003
2017-10-08T05:34:06.509Z,19.700000000000003
2017-10-08T05:36:06.560Z,19.200000000000003
2017-10-08T05:38:06.712Z,19.700000000000003
2017-10-08T05:40:06.999Z,19.200000000000003
2017-10-08T05:42:07.124Z,19.200000000000003
2017-10-08T05:44:07.260Z,19.200000000000003
2017-10-08T05:46:07.330Z,19.200000000000003
2017-10-08T05:48:07.430Z,18.6
2017-10-08T05:50:07.556Z,18.6
2017-10-08T05:52:07.701Z,18.6
2017-10-08T05:54:07.796Z,18.6
2017-10-08T05:56:07.960Z,19.200000000000003
2017-10-08T05:58:08.100Z,19.200000000000003
2017-10-08T06:00:08.249Z,18.6
2017-10-08T06:02:08.296Z,19.200000000000003
2017-10-08T06:04:08.488Z,19.200000000000003
2017-10-08T06:06:08.732Z,18.6
2017-10-08T06:08:08.867Z,19.200000000000003
2017-10-08T06:10:08.955Z,19.200000000000003
2017-10-08T06:12:09.058Z,19.200000000000003
2017-10-08T06:14:09.233Z,18.6
2017-10-08T06:16:09.346Z,18.6
2017-10-08T06:18:09.450Z,18.6
2017-10-08T06:20:09.688Z,18.6
2017-10-08T06:22:09.819Z,18.6
2017-10-08T06:24:09.944Z,19.200000000000003
2017-10-08T06:26:10.096Z,18.6
2017-10-08T06:28:10.260Z,18.6
2017-10-08T06:30:10.325Z,18.6
2017-10-08T06:32:10.566Z,18.6
2017-10-08T06:34:10.619Z,18.6
2017-10-08T06:36:10.724Z,18.6
2017-10-08T06:38:11.757Z,18.6
2017-10-08T06:40:10.987Z,18.6
2017-10-08T06:42:11.171Z,19.200000000000003
2017-10-08T06:44:11.273Z,18.6
2017-10-08T06:46:11.369Z,18.6
2017-10-08T06:48:11.517Z,18.6
2017-10-08T06:50:11.689Z,18.6
2017-10-08T06:52:11.782Z,19.200000000000003
2017-10-08T06:54:11.925Z,19.200000000000003
2017-10-08T06:56:12.145Z,19.200000000000003
2017-10-08T06:58:12.264Z,19.700000000000003
2017-10-08T07:00:12.752Z,19.200000000000003
2017-10-08T07:02:12.872Z,19.200000000000003
2017-10-08T07:04:12.999Z,18.6
2017-10-08T07:06:13.139Z,18.6
2017-10-08T07:08:13.305Z,18.6
2017-10-08T07:10:13.461Z,18.6
2017-10-08T07:12:13.539Z,18.6
2017-10-08T07:14:13.714Z,18.1
2017-10-08T07:16:13.790Z,18.1
2017-10-08T07:18:13.942Z,19.200000000000003
2017-10-08T07:20:14.056Z,19.200000000000003
2017-10-08T07:22:14.207Z,18.6
2017-10-08T07:24:14.510Z,19.200000000000003
2017-10-08T07:26:14.491Z,19.200000000000003
2017-10-08T07:28:14.645Z,18.6
2017-10-08T07:30:14.751Z,19.700000000000003
2017-10-08T07:32:14.915Z,19.200000000000003
2017-10-08T07:34:15.066Z,19.200000000000003
2017-10-08T07:36:15.234Z,19.700000000000003
2017-10-08T07:38:15.365Z,19.200000000000003
2017-10-08T07:40:15.784Z,18.6
2017-10-08T07:42:15.824Z,18.6
2017-10-08T07:44:15.921Z,19.200000000000003
2017-10-08T07:46:16.124Z,18.6
2017-10-08T07:48:16.183Z,19.200000000000003
2017-10-08T07:50:16.289Z,19.200000000000003
2017-10-08T07:52:16.416Z,19.200000000000003
2017-10-08T07:54:16.573Z,19.200000000000003
2017-10-08T07:56:16.680Z,19.200000000000003
2017-10-08T07:58:16.888Z,18.6
2017-10-08T08:00:17.150Z,19.700000000000003
2017-10-08T08:02:17.142Z,19.700000000000003
2017-10-08T08:04:17.251Z,19.700000000000003
2017-10-08T08:06:17.365Z,19.700000000000003
2017-10-08T08:08:17.555Z,19.200000000000003
2017-10-08T08:10:17.660Z,19.700000000000003
2017-10-08T08:12:17.783Z,20.200000000000003
2017-10-08T08:14:17.929Z,19.700000000000003
2017-10-08T08:16:18.063Z,19.700000000000003
2017-10-08T08:18:18.324Z,20.200000000000003
2017-10-08T08:20:18.276Z,20.200000000000003
2017-10-08T08:22:18.407Z,20.799999999999997
2017-10-08T08:24:18.523Z,20.799999999999997
2017-10-08T08:26:18.630Z,20.799999999999997
2017-10-08T08:28:18.808Z,20.799999999999997
2017-10-08T08:30:18.927Z,20.200000000000003
2017-10-08T08:32:19.150Z,20.200000000000003
2017-10-08T08:34:19.236Z,20.200000000000003
2017-10-08T08:36:19.428Z,20.799999999999997
2017-10-08T08:38:19.777Z,20.799999999999997
2017-10-08T08:40:19.644Z,20.200000000000003
2017-10-08T08:42:19.777Z,20.799999999999997
2017-10-08T08:44:20.106Z,19.700000000000003
2017-10-08T08:46:20.072Z,20.799999999999997
2017-10-08T08:48:20.163Z,20.799999999999997
2017-10-08T08:50:20.478Z,20.799999999999997
2017-10-08T08:52:20.560Z,20.799999999999997
2017-10-08T08:54:20.672Z,20.799999999999997
2017-10-08T08:56:20.836Z,20.799999999999997
2017-10-08T08:58:21.052Z,20.799999999999997
2017-10-08T09:00:21.207Z,20.799999999999997
2017-10-08T09:02:21.384Z,20.799999999999997
2017-10-08T09:04:21.402Z,20.799999999999997
2017-10-08T09:06:21.549Z,20.799999999999997
2017-10-08T09:08:21.702Z,20.799999999999997
2017-10-08T09:10:21.842Z,20.799999999999997
2017-10-08T09:12:21.914Z,21.299999999999997
2017-10-08T09:14:22.102Z,20.799999999999997
2017-10-08T09:16:22.205Z,20.799999999999997
2017-10-08T09:18:22.398Z,20.799999999999997
2017-10-08T09:20:22.475Z,20.799999999999997
2017-10-08T09:22:22.607Z,20.799999999999997
2017-10-08T09:24:23.521Z,21.299999999999997
2017-10-08T09:26:22.863Z,21.299999999999997
2017-10-08T09:28:22.969Z,20.799999999999997
2017-10-08T09:30:23.176Z,21.299999999999997
2017-10-08T09:32:23.247Z,20.799999999999997
2017-10-08T09:34:23.352Z,20.799999999999997
2017-10-08T09:36:23.502Z,21.299999999999997
2017-10-08T09:38:23.614Z,21.9
2017-10-08T09:40:23.772Z,21.299999999999997
2017-10-08T09:42:23.948Z,21.9
2017-10-08T09:44:24.002Z,21.299999999999997
2017-10-08T09:46:24.138Z,21.299999999999997
2017-10-08T09:48:24.242Z,21.299999999999997
2017-10-08T09:50:24.391Z,21.299999999999997
2017-10-08T09:52:24.713Z,21.299999999999997
2017-10-08T09:54:24.862Z,21.9
2017-10-08T09:56:24.935Z,22.4
2017-10-08T09:58:25.067Z,22.4
2017-10-08T10:00:25.204Z,21.299999999999997
2017-10-08T10:02:25.346Z,21.9
2017-10-08T10:04:25.493Z,22.4
2017-10-08T10:06:25.699Z,21.9
2017-10-08T10:08:25.777Z,22.4
2017-10-08T10:10:25.913Z,21.9
2017-10-08T10:12:26.072Z,21.9
2017-10-08T10:14:26.158Z,21.9
2017-10-08T10:16:26.281Z,21.9
2017-10-08T10:18:26.420Z,22.9
2017-10-08T10:20:26.839Z,21.9
2017-10-08T10:22:26.605Z,22.4
2017-10-08T10:24:26.775Z,21.9
2017-10-08T10:26:26.968Z,22.4
2017-10-08T10:28:27.060Z,22.4
2017-10-08T10:30:27.230Z,22.4
2017-10-08T10:32:27.389Z,22.9
2017-10-08T10:34:27.404Z,22.4
2017-10-08T10:36:27.579Z,22.4
2017-10-08T10:38:27.708Z,22.9
2017-10-08T10:40:27.830Z,22.9
2017-10-08T10:42:27.927Z,22.4
2017-10-08T10:44:28.063Z,22.9
2017-10-08T10:46:28.205Z,22.9
2017-10-08T10:48:28.318Z,22.9
2017-10-08T10:50:28.466Z,22.9
2017-10-08T10:52:28.747Z,22.9
2017-10-08T10:54:28.738Z,22.9
2017-10-08T10:56:28.883Z,22.4
2017-10-08T10:58:29.139Z,22.4
2017-10-08T11:00:29.134Z,21.9
2017-10-08T11:02:29.297Z,22.9
2017-10-08T11:04:29.581Z,22.9
2017-10-08T11:06:29.670Z,22.9
2017-10-08T11:08:29.897Z,22.9
2017-10-08T11:10:30.014Z,23.5
2017-10-08T11:12:30.120Z,22.9
2017-10-08T11:14:30.259Z,22.9
2017-10-08T11:16:30.402Z,22.9
2017-10-08T11:18:30.614Z,23.5
2017-10-08T11:20:30.741Z,22.9
2017-10-08T11:22:30.809Z,22.9
2017-10-08T11:24:30.940Z,22.9
2017-10-08T11:26:31.148Z,22.9
2017-10-08T11:28:31.262Z,22.9
2017-10-08T11:30:31.321Z,22.9
2017-10-08T11:32:31.477Z,23.5
2017-10-08T11:34:31.640Z,22.9
2017-10-08T11:36:31.767Z,22.9
2017-10-08T11:38:31.922Z,22.9
2017-10-08T11:40:32.050Z,22.9
2017-10-08T11:42:32.196Z,22.9
2017-10-08T11:44:32.338Z,22.9
2017-10-08T11:46:32.514Z,22.9
2017-10-08T11:48:32.585Z,22.9
2017-10-08T11:50:32.732Z,23.5
2017-10-08T11:52:32.836Z,22.9
2017-10-08T11:54:32.949Z,23.5
2017-10-08T11:56:33.128Z,22.9
2017-10-08T11:58:33.280Z,23.5
2017-10-08T12:00:33.782Z,23.5
2017-10-08T12:02:33.910Z,22.9
2017-10-08T12:04:33.991Z,22.9
2017-10-08T12:06:34.105Z,22.9
2017-10-08T12:08:34.262Z,22.9
2017-10-08T12:10:34.402Z,22.9
2017-10-08T12:12:34.577Z,22.9
2017-10-08T12:14:34.714Z,22.9
2017-10-08T12:16:34.940Z,22.9
2017-10-08T12:18:35.012Z,22.9
2017-10-08T12:20:35.200Z,22.9
2017-10-08T12:22:35.194Z,23.5
2017-10-08T12:24:35.311Z,22.9
2017-10-08T12:26:35.489Z,22.9
2017-10-08T12:28:35.554Z,23.5
2017-10-08T12:30:35.714Z,22.9
2017-10-08T12:32:40.819Z,23.5
2017-10-08T12:34:35.980Z,22.9
2017-10-08T12:36:36.093Z,23.5
2017-10-08T12:38:36.159Z,23.5
2017-10-08T12:40:36.308Z,23.5
2017-10-08T12:42:36.410Z,22.9
2017-10-08T12:44:36.543Z,22.9
2017-10-08T12:46:36.659Z,24
2017-10-08T12:48:36.772Z,22.9
2017-10-08T12:50:37.001Z,23.5
2017-10-08T12:52:37.086Z,22.9
2017-10-08T12:54:37.175Z,24
2017-10-08T12:56:37.317Z,24
2017-10-08T12:58:37.430Z,22.9
2017-10-08T13:00:37.655Z,23.5
2017-10-08T13:02:37.841Z,24
2017-10-08T13:04:37.977Z,22.9
2017-10-08T13:06:38.164Z,23.5
2017-10-08T13:08:38.238Z,23.5
2017-10-08T13:10:38.390Z,24
2017-10-08T13:12:38.463Z,23.5
2017-10-08T13:14:39.833Z,24
2017-10-08T13:16:38.755Z,23.5
2017-10-08T13:18:38.929Z,23.5
2017-10-08T13:20:38.938Z,22.9
2017-10-08T13:22:39.121Z,24
2017-10-08T13:24:39.859Z,24
2017-10-08T13:26:39.366Z,23.5
2017-10-08T13:28:39.486Z,23.5
2017-10-08T13:30:39.644Z,24
2017-10-08T13:32:39.724Z,23.5
2017-10-08T13:34:39.865Z,24
2017-10-08T13:36:39.973Z,23.5
2017-10-08T13:38:40.149Z,24
2017-10-08T13:40:40.241Z,23.5
2017-10-08T13:42:40.339Z,24
2017-10-08T13:44:40.485Z,23.5
2017-10-08T13:46:40.575Z,23.5
2017-10-08T13:48:40.811Z,23.5
2017-10-08T13:50:40.833Z,23.5
2017-10-08T13:52:40.987Z,22.9
2017-10-08T13:54:41.139Z,23.5
2017-10-08T13:56:41.430Z,24
2017-10-08T13:58:41.552Z,23.5
2017-10-08T14:00:41.940Z,23.5
2017-10-08T14:02:41.879Z,23.5
2017-10-08T14:04:42.015Z,22.9
2017-10-08T14:06:42.138Z,22.9
2017-10-08T14:08:42.253Z,22.9
2017-10-08T14:10:42.382Z,22.9
2017-10-08T14:12:42.522Z,22.9
2017-10-08T14:14:42.593Z,23.5
2017-10-08T14:16:42.783Z,22.9
2017-10-08T14:18:42.846Z,22.9
2017-10-08T14:20:42.988Z,23.5
2017-10-08T14:22:43.328Z,23.5
2017-10-08T14:24:43.241Z,23.5
2017-10-08T14:26:43.357Z,22.9
2017-10-08T14:28:43.481Z,23.5
2017-10-08T14:30:44.074Z,22.9
2017-10-08T14:32:43.984Z,22.9
2017-10-08T14:34:44.097Z,22.9
2017-10-08T14:36:44.381Z,22.9
2017-10-08T14:38:44.539Z,23.5
2017-10-08T14:40:44.604Z,23.5
2017-10-08T14:42:44.718Z,22.9
2017-10-08T14:44:44.865Z,24
2017-10-08T14:46:45.016Z,23.5
2017-10-08T14:48:45.090Z,23.5
2017-10-08T14:50:45.331Z,22.9
2017-10-08T14:52:45.452Z,23.5
2017-10-08T14:54:45.586Z,22.9
2017-10-08T14:56:46.022Z,23.5
2017-10-08T14:58:46.071Z,23.5
2017-10-08T15:00:46.210Z,22.9
2017-10-08T15:02:46.427Z,23.5
2017-10-08T15:04:46.735Z,22.9
2017-10-08T15:06:46.734Z,22.9
2017-10-08T15:08:46.940Z,22.9
2017-10-08T15:10:47.062Z,22.9
2017-10-08T15:12:47.092Z,22.9
2017-10-08T15:14:47.241Z,22.9
2017-10-08T15:16:47.597Z,22.9
2017-10-08T15:18:47.942Z,22.9
2017-10-08T15:20:47.722Z,22.9
2017-10-08T15:22:47.959Z,22.9
2017-10-08T15:24:48.053Z,22.9
2017-10-08T15:26:48.223Z,22.9
2017-10-08T15:28:48.412Z,22.9
2017-10-08T15:30:48.552Z,22.9
2017-10-08T15:32:48.800Z,22.9
2017-10-08T15:34:48.776Z,22.9
2017-10-08T15:36:48.892Z,22.9
2017-10-08T15:38:49.027Z,22.9
2017-10-08T15:40:49.168Z,22.9
2017-10-08T15:42:49.314Z,22.4
2017-10-08T15:44:49.437Z,22.9
2017-10-08T15:46:49.524Z,22.9
2017-10-08T15:48:49.656Z,23.5
2017-10-08T15:50:49.834Z,22.9
2017-10-08T15:52:49.953Z,22.9
2017-10-08T15:54:50.142Z,22.9
2017-10-08T15:56:50.341Z,22.9
2017-10-08T15:58:50.373Z,22.9
2017-10-08T16:00:50.535Z,22.9
2017-10-08T16:02:50.717Z,22.9
2017-10-08T16:04:50.808Z,22.9
2017-10-08T16:06:50.919Z,22.9
2017-10-08T16:08:51.055Z,22.9
2017-10-08T16:10:51.363Z,22.9
2017-10-08T16:12:51.340Z,22.9
2017-10-08T16:14:51.412Z,22.9
2017-10-08T16:16:51.561Z,23.5
2017-10-08T16:18:51.706Z,22.9
2017-10-08T16:20:51.847Z,23.5
2017-10-08T16:22:51.974Z,22.9
2017-10-08T16:24:52.123Z,22.4
2017-10-08T16:26:52.279Z,22.9
2017-10-08T16:28:52.394Z,22.9
2017-10-08T16:30:52.533Z,22.9
2017-10-08T16:32:52.633Z,22.9
2017-10-08T16:34:52.805Z,22.4
2017-10-08T16:36:53.059Z,22.9
2017-10-08T16:38:53.083Z,22.9
2017-10-08T16:40:53.224Z,22.9
2017-10-08T16:42:53.559Z,22.9
2017-10-08T16:44:53.513Z,22.9
2017-10-08T16:46:53.735Z,22.9
2017-10-08T16:48:53.845Z,22.9
2017-10-08T16:50:54.006Z,22.9
2017-10-08T16:52:54.130Z,22.9
2017-10-08T16:54:54.170Z,22.9
2017-10-08T16:56:54.296Z,22.9
2017-10-08T16:58:54.447Z,22.9
2017-10-08T17:00:54.553Z,22.9
2017-10-08T17:02:54.722Z,22.9
2017-10-08T17:04:54.805Z,22.4
2017-10-08T17:06:55.401Z,22.9
2017-10-08T17:08:55.137Z,22.9
2017-10-08T17:10:55.277Z,22.9
2017-10-08T17:12:55.542Z,22.9
2017-10-08T17:14:55.654Z,22.9
2017-10-08T17:16:55.761Z,22.4
2017-10-08T17:18:55.919Z,22.9
2017-10-08T17:20:55.995Z,22.9
2017-10-08T17:22:56.123Z,22.9
2017-10-08T17:24:56.221Z,22.9
2017-10-08T17:26:56.513Z,22.9
2017-10-08T17:28:56.569Z,22.9
2017-10-08T17:30:56.625Z,22.9
2017-10-08T17:32:56.840Z,22.9
2017-10-08T17:34:56.883Z,22.4
2017-10-08T17:36:56.985Z,22.9
2017-10-08T17:38:57.204Z,22.9
2017-10-08T17:40:57.320Z,22.9
2017-10-08T17:42:57.438Z,22.9
2017-10-08T17:44:57.613Z,22.9
2017-10-08T17:46:57.688Z,22.9
2017-10-08T17:48:57.843Z,22.4
2017-10-08T17:50:57.905Z,22.4
2017-10-08T17:52:58.036Z,21.9
2017-10-08T17:54:58.227Z,22.9
2017-10-08T17:56:58.461Z,22.4
2017-10-08T17:58:58.490Z,22.4
2017-10-08T18:00:58.602Z,21.9
2017-10-08T18:02:58.745Z,21.9
2017-10-08T18:04:58.831Z,21.9
2017-10-08T18:06:58.956Z,21.9
2017-10-08T18:08:59.309Z,21.9
2017-10-08T18:10:59.372Z,21.9
2017-10-08T18:12:59.550Z,21.9
2017-10-08T18:14:59.703Z,21.9
2017-10-08T18:16:59.906Z,21.9
2017-10-08T18:18:59.976Z,21.9
2017-10-08T18:21:00.129Z,21.9
2017-10-08T18:23:00.344Z,21.9
2017-10-08T18:25:00.514Z,21.9
2017-10-08T18:27:00.677Z,21.9
2017-10-08T18:29:00.882Z,22.4
2017-10-08T18:31:00.980Z,21.9
2017-10-08T18:33:01.090Z,21.9
2017-10-08T18:35:01.515Z,21.9
2017-10-08T18:37:01.402Z,21.9
2017-10-08T18:39:01.963Z,21.299999999999997
2017-10-08T18:41:01.890Z,21.9
2017-10-08T18:43:02.060Z,21.299999999999997
2017-10-08T18:45:02.495Z,20.799999999999997
2017-10-08T18:47:02.610Z,21.9
2017-10-08T18:49:02.979Z,21.9
2017-10-08T18:51:03.171Z,21.299999999999997
2017-10-08T18:53:03.224Z,21.9
2017-10-08T18:55:03.426Z,21.299999999999997
2017-10-08T18:57:03.532Z,21.9
2017-10-08T18:59:03.620Z,21.9
2017-10-08T19:01:03.741Z,21.9
2017-10-08T19:03:04.172Z,21.9
2017-10-08T19:05:04.182Z,21.9
2017-10-08T19:07:04.299Z,21.9
2017-10-08T19:09:04.468Z,21.9
2017-10-08T19:11:04.560Z,20.799999999999997
2017-10-08T19:13:04.692Z,21.299999999999997
2017-10-08T19:15:04.845Z,22.4
2017-10-08T19:17:05.155Z,21.9
2017-10-08T19:19:05.119Z,21.299999999999997
2017-10-08T19:21:05.240Z,21.299999999999997
2017-10-08T19:23:05.591Z,21.9
2017-10-08T19:25:05.568Z,21.299999999999997
2017-10-08T19:27:05.822Z,20.799999999999997
2017-10-08T19:29:05.813Z,21.299999999999997
2017-10-08T19:31:05.937Z,21.299999999999997
2017-10-08T19:33:06.111Z,21.299999999999997
2017-10-08T19:35:06.186Z,21.299999999999997
2017-10-08T19:37:06.262Z,21.9
2017-10-08T19:39:06.441Z,21.299999999999997
2017-10-08T19:41:06.535Z,21.299999999999997
2017-10-08T19:43:11.667Z,21.299999999999997
2017-10-08T19:45:07.059Z,21.299999999999997
2017-10-08T19:47:06.904Z,21.299999999999997
2017-10-08T19:49:07.179Z,21.299999999999997
2017-10-08T19:51:07.227Z,21.299999999999997
2017-10-08T19:53:07.444Z,21.9
2017-10-08T19:55:07.692Z,20.799999999999997
2017-10-08T19:57:07.745Z,21.299999999999997
2017-10-08T19:59:07.905Z,21.299999999999997
2017-10-08T20:01:08.006Z,20.799999999999997
2017-10-08T20:03:08.151Z,21.299999999999997
2017-10-08T20:05:08.221Z,21.9
2017-10-08T20:07:08.421Z,20.799999999999997
2017-10-08T20:09:08.554Z,20.799999999999997
2017-10-08T20:11:08.809Z,20.799999999999997
2017-10-08T20:13:08.816Z,21.299999999999997
2017-10-08T20:15:08.930Z,20.799999999999997
2017-10-08T20:17:09.032Z,21.299999999999997
2017-10-08T20:19:09.151Z,20.799999999999997
2017-10-08T20:21:09.326Z,21.299999999999997
2017-10-08T20:23:09.422Z,21.299999999999997
2017-10-08T20:25:09.616Z,21.299999999999997
2017-10-08T20:27:09.706Z,20.799999999999997
2017-10-08T20:29:09.849Z,20.799999999999997
2017-10-08T20:31:09.985Z,21.9
2017-10-08T20:33:10.125Z,21.9
2017-10-08T20:35:10.297Z,21.299999999999997
2017-10-08T20:37:10.471Z,21.9
2017-10-08T20:39:10.649Z,21.299999999999997
2017-10-08T20:41:11.010Z,21.299999999999997
2017-10-08T20:43:10.905Z,21.299999999999997
2017-10-08T20:45:11.111Z,21.299999999999997
2017-10-08T20:47:11.253Z,21.299999999999997
2017-10-08T20:49:11.390Z,20.799999999999997
2017-10-08T20:51:11.486Z,21.9
2017-10-08T20:53:11.636Z,21.299999999999997
2017-10-08T20:55:11.737Z,21.299999999999997
2017-10-08T20:57:11.929Z,21.299999999999997
2017-10-08T20:59:12.185Z,21.299999999999997
2017-10-08T21:01:12.185Z,21.299999999999997
2017-10-08T21:03:12.499Z,21.299999999999997
2017-10-08T21:05:14.109Z,21.299999999999997
2017-10-08T21:07:12.567Z,20.799999999999997
2017-10-08T21:09:12.712Z,21.299999999999997
2017-10-08T21:11:12.893Z,21.299999999999997
2017-10-08T21:13:13.029Z,20.799999999999997
2017-10-08T21:15:13.145Z,21.299999999999997
2017-10-08T21:17:13.287Z,20.799999999999997
2017-10-08T21:19:13.460Z,20.799999999999997
2017-10-08T21:21:13.536Z,20.799999999999997
2017-10-08T21:23:13.690Z,20.799999999999997
2017-10-08T21:25:13.906Z,20.799999999999997
2017-10-08T21:27:13.976Z,20.799999999999997
2017-10-08T21:29:14.337Z,20.799999999999997
2017-10-08T21:31:14.349Z,20.799999999999997
2017-10-08T21:33:14.475Z,20.799999999999997
2017-10-08T21:35:14.582Z,20.799999999999997
2017-10-08T21:37:14.743Z,20.799999999999997
2017-10-08T21:39:14.966Z,20.799999999999997
2017-10-08T21:41:15.052Z,20.799999999999997
2017-10-08T21:43:15.173Z,20.799999999999997
2017-10-08T21:45:15.306Z,20.799999999999997
2017-10-08T21:47:15.426Z,20.799999999999997